Time;durP1;ratioP1;P1;durP2;ratioP2;P2;SDS_P1;SDS_P2;PMS_P1;PMS_P2;Temp;Humidity;BMP_temperature;BMP_pressure;BME280_temperature;BME280_humidity;BME280_pressure;Samples;Min_cycle;Max_cycle;Signal;HPM_P1;HPM_P2
2021/12/09 00:01:50;;;;;;;73.35;22.20;;;;;;;-1.42;nan;99856.09;5027194;28;20046;-72
2021/12/09 00:04:35;;;;;;;63.22;20.80;;;;;;;-1.39;nan;99858.38;5032332;28;20041;-70
2021/12/09 00:07:21;;;;;;;71.32;20.98;;;;;;;-1.35;nan;99858.88;5028470;28;20510;-73
2021/12/09 00:10:09;;;;;;;67.60;21.55;;;;;;;-1.38;nan;99848.84;5019067;28;20480;-72
2021/12/09 00:12:55;;;;;;;63.63;19.95;;;;;;;-1.37;nan;99837.56;5024976;28;20026;-73
2021/12/09 00:15:41;;;;;;;65.63;20.60;;;;;;;-1.35;nan;99839.00;5013868;28;20046;-72
2021/12/09 00:18:27;;;;;;;60.40;20.27;;;;;;;-1.33;nan;99836.28;5026679;28;20423;-72
2021/12/09 00:21:12;;;;;;;66.20;20.60;;;;;;;-1.35;nan;99833.84;5017111;28;20046;-73
2021/12/09 00:23:58;;;;;;;62.17;20.75;;;;;;;-1.33;nan;99839.66;5014497;28;20096;-73
2021/12/09 00:26:45;;;;;;;59.53;20.00;;;;;;;-1.34;nan;99826.88;5020999;28;20037;-72
2021/12/09 00:29:31;;;;;;;56.17;19.25;;;;;;;-1.41;nan;99821.59;5025466;28;20030;-72
2021/12/09 00:32:18;;;;;;;61.95;19.20;;;;;;;-1.48;nan;99807.72;5027682;28;20396;-73
2021/12/09 00:35:05;;;;;;;58.75;20.48;;;;;;;-1.42;nan;99816.56;5016046;28;20041;-72
2021/12/09 00:37:58;;;;;;;60.95;19.92;;;;;;;-1.38;nan;99817.88;5029161;28;20518;-72
2021/12/09 00:40:44;;;;;;;56.72;18.48;;;;;;;-1.40;nan;99814.63;5033723;28;20095;-73
2021/12/09 00:43:30;;;;;;;53.90;18.60;;;;;;;-1.44;nan;99821.88;5034657;28;20082;-72
2021/12/09 00:46:16;;;;;;;55.25;19.33;;;;;;;-1.44;nan;99821.88;5032350;28;20034;-73
2021/12/09 00:49:02;;;;;;;53.85;19.15;;;;;;;-1.47;nan;99821.41;5031995;28;20029;-73
2021/12/09 00:51:49;;;;;;;54.35;18.85;;;;;;;-1.53;nan;99804.81;5030972;28;20025;-73
2021/12/09 00:54:35;;;;;;;54.47;18.02;;;;;;;-1.55;nan;99802.38;5030238;28;20499;-73
2021/12/09 00:57:23;;;;;;;54.03;18.38;;;;;;;-1.50;nan;99805.28;5027492;28;20080;-73
2021/12/09 01:00:18;;;;;;;53.22;17.40;;;;;;;-1.47;nan;99808.50;5042151;28;20052;-73
2021/12/09 01:03:04;;;;;;;52.45;17.17;;;;;;;-1.51;nan;99798.50;5020493;28;20115;-73
2021/12/09 01:05:50;;;;;;;47.30;15.65;;;;;;;-1.51;nan;99792.50;5030233;28;20103;-73
2021/12/09 01:08:37;;;;;;;47.42;17.02;;;;;;;-1.58;nan;99794.94;5020235;28;20033;-73
2021/12/09 01:11:23;;;;;;;53.90;17.35;;;;;;;-1.83;nan;99754.59;5027859;28;20045;-73
2021/12/09 01:14:09;;;;;;;50.65;15.93;;;;;;;-1.62;nan;99796.25;5031668;28;20491;-73
2021/12/09 01:16:55;;;;;;;58.83;16.75;;;;;;;-1.67;nan;99775.25;5029608;28;20041;-73
2021/12/09 01:19:41;;;;;;;55.42;16.33;;;;;;;-1.69;nan;99764.28;5030820;28;20037;-73
2021/12/09 01:22:35;;;;;;;52.28;17.42;;;;;;;-1.59;nan;99777.84;5030614;28;20061;-72
2021/12/09 01:25:23;;;;;;;52.17;16.95;;;;;;;-1.54;nan;99775.56;5029860;28;20137;-73
2021/12/09 01:28:33;;;;;;;47.90;16.37;;;;;;;-1.52;nan;99773.63;5031341;28;20404;-73
2021/12/09 01:31:24;;;;;;;57.90;16.92;;;;;;;-1.60;nan;99749.63;5014373;28;20042;-73
2021/12/09 01:34:10;;;;;;;48.70;17.15;;;;;;;-1.53;nan;99759.13;5023070;28;20072;-73
2021/12/09 01:36:56;;;;;;;51.88;16.20;;;;;;;-1.47;nan;99756.88;5027956;28;20041;-73
2021/12/09 01:39:42;;;;;;;43.33;15.18;;;;;;;-1.47;nan;99747.34;5020849;28;20029;-73
2021/12/09 01:42:28;;;;;;;47.22;15.60;;;;;;;-1.54;nan;99729.09;5030809;28;20609;-72
2021/12/09 01:45:13;;;;;;;46.17;16.13;;;;;;;-1.45;nan;99734.28;5027433;28;20034;-73
2021/12/09 01:48:00;;;;;;;56.28;16.77;;;;;;;-1.45;nan;99724.75;5013601;28;20573;-73
2021/12/09 01:50:45;;;;;;;53.63;15.85;;;;;;;-1.44;nan;99736.66;5011293;28;20061;-73
2021/12/09 01:53:32;;;;;;;49.45;16.35;;;;;;;-1.38;nan;99735.22;5026633;28;20038;-73
2021/12/09 01:56:23;;;;;;;46.78;16.15;;;;;;;-1.37;nan;99734.25;5030604;28;20038;-73
2021/12/09 01:59:09;;;;;;;40.85;16.23;;;;;;;-1.41;nan;99717.47;5030670;28;20120;-73
2021/12/09 02:01:55;;;;;;;42.05;15.90;;;;;;;-1.43;nan;99697.00;5025857;28;20042;-73
2021/12/09 02:04:41;;;;;;;46.92;17.05;;;;;;;-1.37;nan;99711.81;5017454;28;20065;-73
2021/12/09 02:07:27;;;;;;;42.00;15.90;;;;;;;-1.37;nan;99721.34;5027672;28;20140;-73
2021/12/09 02:10:16;;;;;;;41.20;15.55;;;;;;;-1.36;nan;99725.56;5020437;28;20081;-73
2021/12/09 02:13:02;;;;;;;45.28;14.52;;;;;;;-1.37;nan;99724.72;5016233;28;20045;-73
2021/12/09 02:15:52;;;;;;;42.45;14.35;;;;;;;-1.34;nan;99721.00;5033577;28;20395;-73
2021/12/09 02:18:38;;;;;;;39.38;14.15;;;;;;;-1.33;nan;99717.47;5026376;28;20036;-73
2021/12/09 02:21:26;;;;;;;39.22;14.90;;;;;;;-1.34;nan;99718.41;5028201;28;20740;-73
2021/12/09 02:24:16;;;;;;;39.58;14.40;;;;;;;-1.29;nan;99718.75;5028431;28;20049;-73
2021/12/09 02:27:02;;;;;;;38.38;14.35;;;;;;;-1.36;nan;99700.53;5028134;28;20117;-74
2021/12/09 02:29:53;;;;;;;35.75;12.90;;;;;;;-1.30;nan;99706.78;5015273;28;20045;-73
2021/12/09 02:32:39;;;;;;;38.13;13.48;;;;;;;-1.41;nan;99676.16;5020131;28;20106;-73
2021/12/09 02:35:25;;;;;;;30.35;12.63;;;;;;;-1.30;nan;99691.31;5034694;28;20039;-73
2021/12/09 02:38:11;;;;;;;33.65;13.07;;;;;;;-1.29;nan;99688.56;5021845;28;20061;-73
2021/12/09 02:40:58;;;;;;;36.95;13.02;;;;;;;-1.27;nan;99693.53;5019435;28;20099;-73
2021/12/09 02:43:48;;;;;;;30.77;11.13;;;;;;;-1.30;nan;99691.31;5017877;28;20046;-73
2021/12/09 02:46:37;;;;;;;32.10;12.85;;;;;;;-1.24;nan;99688.06;5028955;28;20518;-73
2021/12/09 02:49:26;;;;;;;32.65;12.00;;;;;;;-1.27;nan;99685.00;5019618;28;20072;-73
2021/12/09 02:52:12;;;;;;;34.22;12.10;;;;;;;-1.37;nan;99664.53;5021054;28;20467;-73
2021/12/09 02:54:58;;;;;;;31.00;11.98;;;;;;;-1.24;nan;99677.75;5024860;28;20117;-74
2021/12/09 02:57:44;;;;;;;29.88;12.02;;;;;;;-1.28;nan;99663.53;5016333;28;20045;-74
2021/12/09 03:00:30;;;;;;;27.25;10.90;;;;;;;-1.29;nan;99656.78;5032443;28;20415;-73
2021/12/09 03:03:15;;;;;;;31.23;12.40;;;;;;;-1.24;nan;99658.84;5026331;28;20076;-73
2021/12/09 03:06:01;;;;;;;30.90;12.18;;;;;;;-1.31;nan;99643.22;5021432;28;20057;-72
2021/12/09 03:08:49;;;;;;;29.48;11.85;;;;;;;-1.53;nan;99611.97;5035830;28;20060;-72
2021/12/09 03:11:36;;;;;;;29.10;11.70;;;;;;;-1.23;nan;99668.22;5033821;28;20030;-73
2021/12/09 03:14:23;;;;;;;28.05;11.07;;;;;;;-1.23;nan;99673.38;5031340;28;20611;-73
2021/12/09 03:17:09;;;;;;;27.88;11.27;;;;;;;-1.25;nan;99670.16;5021870;28;20088;-73
2021/12/09 03:19:55;;;;;;;32.88;11.80;;;;;;;-1.30;nan;99668.06;5033536;28;20037;-74
2021/12/09 03:22:41;;;;;;;31.60;11.40;;;;;;;-1.35;nan;99654.84;5015275;28;20042;-73
2021/12/09 03:25:27;;;;;;;31.17;11.27;;;;;;;-1.31;nan;99656.13;5029619;28;20053;-74
2021/12/09 03:28:13;;;;;;;28.70;11.50;;;;;;;-1.28;nan;99666.13;5032440;28;20072;-74
2021/12/09 03:30:59;;;;;;;29.38;11.52;;;;;;;-1.23;nan;99671.59;5019762;28;20111;-74
2021/12/09 03:33:45;;;;;;;29.38;11.48;;;;;;;-1.16;nan;99671.72;5029713;28;20037;-74
2021/12/09 03:36:30;;;;;;;31.35;12.52;;;;;;;-1.18;nan;99668.50;5031283;28;20064;-73
2021/12/09 03:39:19;;;;;;;29.02;12.27;;;;;;;-1.13;nan;99674.78;5029034;28;20032;-73
2021/12/09 03:42:08;;;;;;;27.67;11.15;;;;;;;-1.14;nan;99657.69;5033184;28;20030;-74
2021/12/09 03:44:55;;;;;;;23.15;10.02;;;;;;;-1.12;nan;99660.91;5034357;28;20431;-74
2021/12/09 03:47:43;;;;;;;27.30;10.88;;;;;;;-1.16;nan;99656.22;5032756;28;20145;-73
2021/12/09 03:50:28;;;;;;;26.65;10.95;;;;;;;-1.10;nan;99660.75;5025527;28;20056;-73
2021/12/09 03:53:14;;;;;;;27.65;11.07;;;;;;;-1.08;nan;99658.78;5030782;28;20363;-74
2021/12/09 03:56:00;;;;;;;28.17;11.30;;;;;;;-1.09;nan;99659.75;5024349;28;20046;-74
2021/12/09 03:58:46;;;;;;;29.70;11.18;;;;;;;-1.12;nan;99662.69;5028300;28;20033;-74
2021/12/09 04:01:35;;;;;;;25.65;10.80;;;;;;;-1.04;nan;99656.69;5021099;28;20042;-73
2021/12/09 04:04:22;;;;;;;25.60;10.82;;;;;;;-1.03;nan;99659.09;5022606;28;20042;-73
2021/12/09 04:07:07;;;;;;;25.67;10.27;;;;;;;-1.06;nan;99654.25;5025521;28;20034;-73
2021/12/09 04:09:53;;;;;;;28.17;11.82;;;;;;;-1.08;nan;99654.44;5020205;28;20037;-74
2021/12/09 04:12:39;;;;;;;29.25;11.20;;;;;;;-1.07;nan;99648.28;5023350;28;20084;-73
2021/12/09 04:15:26;;;;;;;24.08;10.48;;;;;;;-1.04;nan;99651.50;5015153;28;20076;-74
2021/12/09 04:18:11;;;;;;;25.02;11.35;;;;;;;-1.12;nan;99639.44;5033924;28;20033;-73
2021/12/09 04:20:57;;;;;;;25.05;10.40;;;;;;;-1.10;nan;99638.28;5033092;28;20407;-74
2021/12/09 04:23:43;;;;;;;26.48;11.20;;;;;;;-1.12;nan;99637.66;5011870;28;20104;-73
2021/12/09 04:26:29;;;;;;;28.10;11.35;;;;;;;-1.00;nan;99645.84;5031624;28;20033;-74
2021/12/09 04:29:14;;;;;;;26.63;11.30;;;;;;;-0.97;nan;99652.44;5029880;28;20052;-73
2021/12/09 04:32:00;;;;;;;26.58;10.85;;;;;;;-1.05;nan;99634.38;5031191;28;20017;-73
2021/12/09 04:34:47;;;;;;;30.13;11.45;;;;;;;-0.93;nan;99649.38;5032038;28;20040;-73
2021/12/09 04:37:32;;;;;;;28.35;11.43;;;;;;;-0.93;nan;99635.66;5021260;28;20120;-74
2021/12/09 04:40:18;;;;;;;29.10;11.82;;;;;;;-0.94;nan;99636.59;5014300;28;20030;-74
2021/12/09 04:43:04;;;;;;;31.67;12.23;;;;;;;-0.92;nan;99648.38;5016349;28;20044;-74
2021/12/09 04:45:50;;;;;;;28.02;11.85;;;;;;;-0.96;nan;99635.97;5030879;28;20121;-73
2021/12/09 04:48:37;;;;;;;26.92;11.13;;;;;;;-0.96;nan;99613.53;5012347;28;20411;-73
2021/12/09 04:51:23;;;;;;;29.15;10.82;;;;;;;-0.88;nan;99617.84;5010871;28;20042;-74
2021/12/09 04:54:09;;;;;;;27.85;12.10;;;;;;;-0.93;nan;99625.31;5023695;28;20037;-74
2021/12/09 04:56:54;;;;;;;32.08;12.05;;;;;;;-0.93;nan;99609.81;5029148;28;20046;-74
2021/12/09 04:59:41;;;;;;;25.65;11.38;;;;;;;-0.89;nan;99618.81;5011908;28;20096;-74
2021/12/09 05:02:37;;;;;;;28.05;12.20;;;;;;;-0.87;nan;99625.41;5019573;28;20041;-73
2021/12/09 05:05:23;;;;;;;31.55;12.63;;;;;;;-0.82;nan;99621.53;5013844;28;20040;-74
2021/12/09 05:08:14;;;;;;;31.17;12.80;;;;;;;-0.85;nan;99604.56;5041300;28;20533;-74
2021/12/09 05:13:46;;;;;;;28.45;11.98;;;;;;;-0.71;nan;99598.69;5032763;28;20110;-73
2021/12/09 05:16:33;;;;;;;32.17;12.63;;;;;;;-0.74;nan;99583.50;5012493;28;20107;-73
2021/12/09 05:19:22;;;;;;;32.92;12.68;;;;;;;-0.74;nan;99578.34;5034435;28;20116;-73
2021/12/09 05:22:08;;;;;;;25.85;11.18;;;;;;;-0.63;nan;99591.84;5049037;28;20037;-73
2021/12/09 05:24:54;;;;;;;29.95;12.40;;;;;;;-0.67;nan;99589.59;5043821;28;20047;-73
2021/12/09 05:27:41;;;;;;;29.40;12.05;;;;;;;-0.57;nan;99593.75;5045992;28;21304;-73
2021/12/09 05:30:38;;;;;;;31.00;12.90;;;;;;;-0.58;nan;99599.88;5045619;28;20098;-73
2021/12/09 05:33:24;;;;;;;29.75;11.68;;;;;;;-0.59;nan;99585.34;5038798;28;20040;-73
2021/12/09 05:36:10;;;;;;;27.63;12.25;;;;;;;-0.49;nan;99604.03;5047149;28;20079;-73
2021/12/09 05:38:56;;;;;;;31.63;12.15;;;;;;;-0.50;nan;99608.41;5047915;28;20032;-73
2021/12/09 05:41:43;;;;;;;28.63;11.80;;;;;;;-0.46;nan;99599.28;5045202;28;20048;-74
2021/12/09 05:44:29;;;;;;;29.58;11.82;;;;;;;-0.52;nan;99583.69;5050105;28;20033;-73
2021/12/09 05:47:15;;;;;;;29.27;12.57;;;;;;;-0.48;nan;99580.59;5030224;28;20030;-73
2021/12/09 05:50:01;;;;;;;28.23;12.07;;;;;;;-0.53;nan;99566.56;5030834;28;20030;-73
2021/12/09 05:52:47;;;;;;;30.45;12.68;;;;;;;-0.43;nan;99583.47;5031076;28;20033;-74
2021/12/09 05:55:33;;;;;;;28.38;11.82;;;;;;;-0.41;nan;99587.63;5031168;28;20041;-73
2021/12/09 05:58:22;;;;;;;31.23;12.70;;;;;;;-0.34;nan;99614.41;5040869;28;20040;-74
2021/12/09 06:01:08;;;;;;;29.77;12.68;;;;;;;-0.36;nan;99608.63;5030101;28;20057;-72
2021/12/09 06:03:53;;;;;;;30.55;12.88;;;;;;;-0.30;nan;99621.66;5019995;28;20049;-73
2021/12/09 06:06:40;;;;;;;32.75;12.70;;;;;;;-0.26;nan;99627.31;5030079;28;20034;-74
2021/12/09 06:09:26;;;;;;;30.48;12.75;;;;;;;-0.30;nan;99616.50;5037501;28;20406;-72
2021/12/09 06:12:12;;;;;;;27.08;12.10;;;;;;;-0.24;nan;99613.22;5030126;28;20403;-73
2021/12/09 06:14:57;;;;;;;25.02;12.15;;;;;;;-0.26;nan;99591.09;5030213;28;20038;-74
2021/12/09 06:17:43;;;;;;;23.98;11.02;;;;;;;-0.25;nan;99587.50;5032140;28;20453;-73
2021/12/09 06:20:29;;;;;;;24.75;11.23;;;;;;;-0.19;nan;99580.81;5030790;28;20029;-72
2021/12/09 06:23:15;;;;;;;28.95;11.85;;;;;;;-0.54;nan;99518.41;5033445;28;20442;-72
2021/12/09 06:26:01;;;;;;;27.33;12.40;;;;;;;-0.10;nan;99572.81;5030030;28;20036;-73
2021/12/09 06:28:46;;;;;;;27.42;11.82;;;;;;;-0.11;nan;99570.44;5028540;28;20033;-72
2021/12/09 06:31:32;;;;;;;26.85;11.38;;;;;;;-0.09;nan;99578.81;5030066;28;20514;-72
2021/12/09 06:34:18;;;;;;;23.58;10.52;;;;;;;-0.01;nan;99599.44;5023674;28;20042;-72
2021/12/09 06:37:04;;;;;;;28.63;10.30;;;;;;;-0.03;nan;99583.28;5019958;28;20041;-73
2021/12/09 06:39:49;;;;;;;23.27;10.10;;;;;;;0.03;nan;99568.84;5038181;28;20120;-71
2021/12/09 06:42:35;;;;;;;24.92;10.43;;;;;;;-0.04;nan;99548.84;5020140;28;20572;-72
2021/12/09 06:45:23;;;;;;;24.60;10.88;;;;;;;0.09;nan;99566.31;5023613;28;20045;-73
2021/12/09 06:48:09;;;;;;;22.85;10.05;;;;;;;0.14;nan;99560.63;5012379;28;20038;-73
2021/12/09 06:50:55;;;;;;;23.05;9.88;;;;;;;0.19;nan;99581.59;5032391;28;20033;-73
2021/12/09 06:53:40;;;;;;;20.60;9.57;;;;;;;0.04;nan;99550.53;5033935;28;20075;-73
2021/12/09 06:56:27;;;;;;;21.02;9.75;;;;;;;0.22;nan;99573.50;5034031;28;20041;-72
2021/12/09 06:59:13;;;;;;;24.88;10.07;;;;;;;0.22;nan;99557.97;5032055;28;20033;-73
2021/12/09 07:01:59;;;;;;;24.33;10.75;;;;;;;-0.02;nan;99520.19;5033733;28;20084;-73
2021/12/09 07:04:45;;;;;;;24.05;10.38;;;;;;;0.33;nan;99569.66;5032734;28;20538;-73
2021/12/09 07:07:31;;;;;;;29.42;11.07;;;;;;;0.25;nan;99557.59;5022833;28;20376;-72
2021/12/09 07:10:18;;;;;;;25.83;11.02;;;;;;;0.34;nan;99568.69;5021543;28;20036;-73
2021/12/09 07:13:05;;;;;;;26.17;11.45;;;;;;;0.32;nan;99557.69;5031448;28;20038;-73
2021/12/09 07:15:51;;;;;;;26.98;11.43;;;;;;;0.35;nan;99558.13;5036041;28;20036;-73
2021/12/09 07:18:37;;;;;;;27.52;10.93;;;;;;;0.36;nan;99561.50;5031150;28;20041;-73
2021/12/09 07:21:22;;;;;;;26.98;11.18;;;;;;;0.42;nan;99573.75;5033962;28;20124;-73
2021/12/09 07:24:08;;;;;;;27.25;11.43;;;;;;;0.46;nan;99564.66;5044329;28;20109;-72
2021/12/09 07:26:54;;;;;;;24.63;11.52;;;;;;;0.51;nan;99559.75;5033101;28;20040;-73
2021/12/09 07:29:40;;;;;;;26.15;11.10;;;;;;;0.51;nan;99556.34;5041515;28;20124;-72
2021/12/09 07:32:26;;;;;;;23.95;10.98;;;;;;;0.44;nan;99532.94;5029379;28;20033;-72
2021/12/09 07:35:13;;;;;;;24.38;11.00;;;;;;;0.64;nan;99559.09;5032312;28;20095;-72
2021/12/09 07:38:00;;;;;;;23.63;10.30;;;;;;;0.63;nan;99554.91;5035387;28;20042;-73
2021/12/09 07:40:45;;;;;;;22.15;9.98;;;;;;;0.71;nan;99547.03;5031856;28;20115;-72
2021/12/09 07:43:31;;;;;;;24.05;10.00;;;;;;;0.70;nan;99518.72;5029586;28;20072;-72
2021/12/09 07:46:17;;;;;;;23.95;10.80;;;;;;;0.79;nan;99533.97;5045846;28;20117;-72
2021/12/09 07:49:06;;;;;;;26.08;9.82;;;;;;;0.84;nan;99536.81;5032940;28;20033;-72
2021/12/09 07:51:53;;;;;;;22.30;9.90;;;;;;;0.92;nan;99535.09;5031333;28;20543;-72
2021/12/09 07:54:39;;;;;;;22.65;10.52;;;;;;;0.95;nan;99551.06;5032851;28;20203;-72
2021/12/09 07:57:25;;;;;;;23.00;9.93;;;;;;;1.05;nan;99543.00;5027569;28;20025;-72
2021/12/09 08:00:15;;;;;;;19.92;9.55;;;;;;;1.18;nan;99552.72;5018710;28;20408;-72
2021/12/09 08:03:02;;;;;;;22.02;9.70;;;;;;;1.27;nan;99552.41;5031405;28;20499;-72
2021/12/09 08:05:48;;;;;;;22.08;8.98;;;;;;;1.34;nan;99542.09;5033203;28;20082;-72
2021/12/09 08:08:34;;;;;;;21.02;9.48;;;;;;;1.43;nan;99535.78;5031563;28;20038;-70
2021/12/09 08:11:20;;;;;;;21.55;8.82;;;;;;;1.25;nan;99492.16;5031271;28;20487;-72
2021/12/09 08:14:07;;;;;;;17.48;8.98;;;;;;;1.59;nan;99531.34;5018300;28;20067;-72
2021/12/09 08:17:07;;;;;;;17.98;8.32;;;;;;;1.57;nan;99526.31;5026795;28;20236;-72
2021/12/09 08:19:53;;;;;;;19.00;9.00;;;;;;;1.66;nan;99540.78;5025188;28;20088;-70
2021/12/09 08:22:41;;;;;;;21.10;9.57;;;;;;;1.69;nan;99537.78;5031556;28;20124;-69
2021/12/09 08:25:27;;;;;;;18.60;9.43;;;;;;;1.75;nan;99538.84;5021436;28;20112;-69
2021/12/09 08:28:13;;;;;;;20.85;9.68;;;;;;;1.74;nan;99531.25;5031354;28;20049;-69
2021/12/09 08:30:59;;;;;;;19.02;9.10;;;;;;;1.75;nan;99543.22;5026594;28;20037;-69
2021/12/09 08:33:45;;;;;;;20.05;9.25;;;;;;;1.74;nan;99531.25;5032453;28;20030;-69
2021/12/09 08:36:32;;;;;;;19.88;9.32;;;;;;;1.76;nan;99530.06;5027954;28;20029;-69
2021/12/09 08:39:18;;;;;;;20.85;9.20;;;;;;;1.76;nan;99530.06;5032749;28;20061;-71
2021/12/09 08:42:04;;;;;;;19.20;9.75;;;;;;;1.78;nan;99520.28;5024031;28;20034;-72
2021/12/09 08:44:52;;;;;;;22.23;9.98;;;;;;;1.74;nan;99510.47;5024530;28;20060;-72
2021/12/09 08:47:39;;;;;;;22.42;10.68;;;;;;;1.87;nan;99529.53;5030753;28;20452;-73
2021/12/09 08:50:33;;;;;;;20.75;9.95;;;;;;;1.92;nan;99523.78;5030314;28;20634;-71
2021/12/09 08:53:23;;;;;;;21.88;10.60;;;;;;;1.94;nan;99536.56;5030814;28;20056;-72
2021/12/09 08:56:09;;;;;;;24.45;9.90;;;;;;;1.99;nan;99516.03;5031573;28;20065;-72
2021/12/09 08:58:55;;;;;;;22.02;10.18;;;;;;;1.95;nan;99500.03;5031416;28;20073;-72
2021/12/09 09:01:40;;;;;;;19.50;9.32;;;;;;;1.97;nan;99484.28;5030587;28;20053;-75
2021/12/09 09:04:26;;;;;;;19.02;9.05;;;;;;;2.12;nan;99505.72;5029249;28;20553;-72
2021/12/09 09:07:12;;;;;;;17.38;8.57;;;;;;;2.16;nan;99501.75;5028430;28;20181;-74
2021/12/09 09:09:57;;;;;;;18.25;8.57;;;;;;;2.32;nan;99508.41;5011588;28;20034;-72
2021/12/09 09:12:43;;;;;;;17.88;8.88;;;;;;;2.34;nan;99493.44;5031007;28;20037;-71
2021/12/09 09:15:31;;;;;;;21.73;8.90;;;;;;;2.56;nan;99525.31;5019710;28;20048;-72
2021/12/09 09:18:19;;;;;;;15.57;7.95;;;;;;;2.51;nan;99501.69;5013170;28;20046;-74
2021/12/09 09:21:05;;;;;;;18.35;8.40;;;;;;;2.58;nan;99506.94;5025736;28;20034;-73
2021/12/09 09:23:51;;;;;;;16.17;8.43;;;;;;;2.63;nan;99500.13;5029100;28;20029;-73
2021/12/09 09:26:37;;;;;;;20.85;8.25;;;;;;;2.68;nan;99497.78;5031739;28;20129;-74
2021/12/09 09:29:24;;;;;;;17.08;8.93;;;;;;;2.70;nan;99502.75;5027498;28;20034;-68
2021/12/09 09:32:12;;;;;;;17.05;8.23;;;;;;;2.77;nan;99509.59;5016523;28;20029;-68
2021/12/09 09:34:58;;;;;;;17.58;8.20;;;;;;;2.77;nan;99490.59;5025544;28;20072;-68
2021/12/09 09:37:45;;;;;;;20.17;8.32;;;;;;;2.77;nan;99488.78;5020867;28;20384;-68
2021/12/09 09:40:45;;;;;;;19.27;8.57;;;;;;;2.89;nan;99483.03;5029413;28;20041;-69
2021/12/09 09:44:18;;;;;;;23.95;9.15;;;;;;;2.93;nan;99505.84;5028595;28;20073;-69
2021/12/09 09:46:37;;;;;;;17.48;8.65;;;;;;;2.94;nan;99496.22;5030868;28;20095;-67
2021/12/09 09:49:24;;;;;;;19.13;8.90;;;;;;;3.05;nan;99500.06;5029814;28;20099;-69
2021/12/09 09:52:10;;;;;;;16.77;8.45;;;;;;;3.00;nan;99472.03;5030697;28;20095;-69
2021/12/09 09:54:56;;;;;;;20.42;8.45;;;;;;;3.07;nan;99470.25;5024987;28;20033;-68
2021/12/09 09:57:43;;;;;;;18.77;8.30;;;;;;;3.18;nan;99468.84;5032172;28;20120;-67
2021/12/09 10:00:30;;;;;;;25.00;9.57;;;;;;;3.22;nan;99466.66;5020002;28;20116;-74
2021/12/09 10:03:16;;;;;;;22.00;8.93;;;;;;;3.23;nan;99460.44;5024608;28;20048;-74
2021/12/09 10:06:02;;;;;;;17.60;8.48;;;;;;;3.26;nan;99447.06;5030142;28;20041;-73
2021/12/09 10:08:48;;;;;;;18.13;8.60;;;;;;;3.24;nan;99431.63;5011280;28;20037;-73
2021/12/09 10:11:35;;;;;;;70.78;25.42;;;;;;;3.34;nan;99450.25;5029867;28;20042;-74
2021/12/09 10:14:27;;;;;;;21.02;9.68;;;;;;;3.38;nan;99456.66;5030009;28;20036;-74
2021/12/09 10:17:16;;;;;;;17.45;8.65;;;;;;;3.34;nan;99446.84;5015387;28;20049;-74
2021/12/09 10:20:05;;;;;;;17.23;8.60;;;;;;;3.41;nan;99442.44;5028823;28;20078;-74
2021/12/09 10:22:50;;;;;;;17.40;8.48;;;;;;;3.43;nan;99432.63;5033111;28;20037;-74
2021/12/09 10:25:36;;;;;;;17.48;7.93;;;;;;;3.46;nan;99419.19;5029538;28;20478;-74
2021/12/09 10:28:23;;;;;;;16.05;8.32;;;;;;;3.32;nan;99389.00;5022318;28;20069;-74
2021/12/09 10:31:14;;;;;;;16.52;8.18;;;;;;;3.50;nan;99399.59;5017434;28;20085;-74
2021/12/09 10:37:05;;;;;;;18.27;9.38;;;;;;;3.65;nan;99382.94;5023676;28;20069;-74
2021/12/09 10:40:00;;;;;;;18.38;8.73;;;;;;;3.67;nan;99381.72;5031678;28;20045;-74
2021/12/09 10:42:57;;;;;;;16.60;8.52;;;;;;;3.67;nan;99357.50;5033463;28;20517;-73
2021/12/09 10:45:43;;;;;;;15.98;8.52;;;;;;;3.81;nan;99382.50;5033245;28;20060;-73
2021/12/09 10:48:40;;;;;;;18.17;8.55;;;;;;;3.81;nan;99365.06;5033351;28;20030;-74
2021/12/09 10:51:36;;;;;;;15.88;7.93;;;;;;;3.93;nan;99354.81;5032589;28;20061;-74
2021/12/09 10:54:36;;;;;;;17.48;8.40;;;;;;;3.91;nan;99345.59;5034128;28;20088;-74
2021/12/09 10:57:29;;;;;;;16.75;8.43;;;;;;;4.07;nan;99352.94;5032479;28;20033;-72
2021/12/09 11:00:17;;;;;;;18.63;8.18;;;;;;;4.19;nan;99345.25;5031932;28;20042;-73
2021/12/09 11:03:14;;;;;;;18.15;7.50;;;;;;;4.23;nan;99338.59;5034379;28;20116;-73
2021/12/09 11:06:00;;;;;;;15.02;7.97;;;;;;;4.29;nan;99339.59;5034047;28;20038;-73
2021/12/09 11:08:50;;;;;;;22.80;8.55;;;;;;;4.33;nan;99332.94;5018747;28;20061;-73
2021/12/09 11:11:36;;;;;;;17.77;8.00;;;;;;;4.40;nan;99329.28;5032272;28;20451;-73
2021/12/09 11:14:27;;;;;;;11.52;6.75;;;;;;;4.47;nan;99326.63;5028048;28;20351;-73
2021/12/09 11:17:13;;;;;;;12.80;6.95;;;;;;;4.51;nan;99324.41;5016809;28;20389;-73
2021/12/09 11:19:58;;;;;;;14.75;6.72;;;;;;;4.47;nan;99303.97;5029734;28;20376;-73
2021/12/09 11:22:45;;;;;;;18.35;6.90;;;;;;;4.56;nan;99303.72;5016102;28;20046;-74
2021/12/09 11:25:40;;;;;;;13.35;7.20;;;;;;;4.63;nan;99291.44;5034203;28;20045;-74
2021/12/09 11:28:26;;;;;;;11.82;6.70;;;;;;;4.72;nan;99290.16;5029541;28;20411;-72
2021/12/09 11:31:16;;;;;;;12.02;6.45;;;;;;;4.75;nan;99284.50;5033400;28;20045;-72
2021/12/09 11:34:12;;;;;;;12.15;6.28;;;;;;;4.85;nan;99300.44;5012626;28;20046;-72
2021/12/09 11:37:05;;;;;;;10.23;5.65;;;;;;;4.89;nan;99295.63;5023652;28;20048;-72
2021/12/09 11:39:51;;;;;;;10.05;5.78;;;;;;;4.92;nan;99286.56;5032233;28;20041;-71
2021/12/09 11:42:46;;;;;;;12.60;6.03;;;;;;;4.99;nan;99279.47;5043216;28;20514;-71
2021/12/09 11:45:37;;;;;;;10.75;5.82;;;;;;;5.00;nan;99270.63;5033332;28;20048;-72
2021/12/09 11:48:23;;;;;;;11.77;5.72;;;;;;;4.95;nan;99262.66;5021460;28;20037;-72
2021/12/09 11:51:09;;;;;;;11.27;5.97;;;;;;;5.08;nan;99278.19;5029552;28;20041;-72
2021/12/09 11:53:59;;;;;;;11.57;5.55;;;;;;;5.11;nan;99273.31;5032192;28;20385;-72
2021/12/09 12:12:56;;;;;;;10.45;6.05;;;;;;;5.50;nan;99223.47;5025533;28;20033;-75
2021/12/09 12:15:52;;;;;;;11.93;5.85;;;;;;;5.49;nan;99216.69;5026402;28;20041;-74
2021/12/09 12:19:04;;;;;;;11.27;5.28;;;;;;;5.60;nan;99230.78;5014261;28;20038;-73
2021/12/09 12:22:39;;;;;;;12.18;5.65;;;;;;;5.62;nan;99216.50;5021476;28;20092;-73
2021/12/09 12:25:31;;;;;;;12.48;5.97;;;;;;;5.61;nan;99204.47;5028577;28;20041;-74
2021/12/09 12:28:30;;;;;;;13.05;5.38;;;;;;;5.68;nan;99212.22;5020253;28;20482;-74
2021/12/09 12:40:55;;;;;;;13.13;4.97;;;;;;;5.71;nan;99172.59;5024393;28;20112;-74
2021/12/09 12:43:57;;;;;;;10.30;4.65;;;;;;;5.76;nan;99188.38;5021432;28;20037;-74
2021/12/09 12:47:07;;;;;;;11.30;4.78;;;;;;;5.74;nan;99203.47;5026007;28;20061;-67
2021/12/09 12:50:10;;;;;;;9.85;4.32;;;;;;;5.67;nan;99195.72;5024088;28;20041;-74
2021/12/09 12:53:55;;;;;;;11.27;4.75;;;;;;;5.70;nan;99202.34;5030246;28;20030;-74
2021/12/09 12:56:57;;;;;;;9.98;5.00;;;;;;;5.72;nan;99205.50;5050273;28;20560;-75
2021/12/09 13:00:04;;;;;;;8.27;4.63;;;;;;;5.76;nan;99219.72;5033290;28;20048;-74
2021/12/09 13:05:54;;;;;;;13.52;5.20;;;;;;;5.74;nan;99217.31;5033680;28;20041;-67
2021/12/09 13:11:54;;;;;;;12.63;5.55;;;;;;;5.71;nan;99196.88;5049724;28;20098;-67
2021/12/09 13:15:07;;;;;;;9.02;5.30;;;;;;;5.73;nan;99199.28;5029443;28;20099;-67
2021/12/09 13:18:03;;;;;;;10.63;4.85;;;;;;;5.64;nan;99188.34;5048841;28;20450;-67
2021/12/09 13:20:48;;;;;;;10.65;4.88;;;;;;;5.63;nan;99176.31;5047293;28;20115;-67
2021/12/09 13:23:34;;;;;;;10.65;4.80;;;;;;;5.71;nan;99190.88;5044088;28;20124;-68
2021/12/09 13:26:25;;;;;;;10.80;5.43;;;;;;;5.69;nan;99185.06;5042000;28;20492;-67
2021/12/09 13:29:35;;;;;;;11.95;6.28;;;;;;;5.61;nan;99173.13;5031077;28;20041;-67
2021/12/09 13:48:17;;;;;;;16.75;7.97;;;;;;;5.63;nan;99147.59;5008581;28;20056;-68
2021/12/09 13:51:19;;;;;;;17.80;8.60;;;;;;;5.59;nan;99138.59;5009016;28;20065;-69
2021/12/09 13:57:34;;;;;;;18.67;8.52;;;;;;;5.56;nan;99136.44;5006024;28;20128;-69
2021/12/09 14:00:25;;;;;;;17.52;8.10;;;;;;;5.55;nan;99140.06;5011985;28;20053;-69
2021/12/09 14:03:15;;;;;;;14.45;7.97;;;;;;;5.53;nan;99136.88;5012499;28;20088;-69
2021/12/09 14:06:09;;;;;;;15.77;7.50;;;;;;;5.40;nan;99127.41;5010583;28;20038;-69
2021/12/09 14:08:56;;;;;;;18.35;8.60;;;;;;;5.31;nan;99126.91;5010231;28;20553;-68
2021/12/09 14:11:48;;;;;;;20.17;8.90;;;;;;;5.27;nan;99122.38;5014992;28;20430;-74
2021/12/09 14:14:57;;;;;;;18.42;9.23;;;;;;;5.31;nan;99142.59;5028826;28;20038;-74
2021/12/09 14:17:45;;;;;;;18.58;9.85;;;;;;;5.27;nan;99151.09;5035386;28;20049;-74
2021/12/09 14:20:30;;;;;;;16.55;8.57;;;;;;;5.20;nan;99129.50;5027194;28;20033;-74